Time;durP1;ratioP1;P1;durP2;ratioP2;P2;SDS_P1;SDS_P2;PMS_P1;PMS_P2;Temp;Humidity;BMP_temperature;BMP_pressure;BME280_temperature;BME280_humidity;BME280_pressure;Samples;Min_cycle;Max_cycle;Signal;HPM_P1;HPM_P2
2023/03/10 00:01:28;;;;;;;4.53;2.33;;;;;;;10.11;50.30;93063.41;5030214;28;20044;-75
2023/03/10 00:03:55;;;;;;;8.10;2.73;;;;;;;10.69;49.54;93125.38;5032228;28;20038;-76
2023/03/10 00:06:23;;;;;;;3.95;2.05;;;;;;;11.09;48.71;93112.22;5034229;28;20038;-75
2023/03/10 00:08:49;;;;;;;4.13;2.42;;;;;;;11.28;48.12;93124.97;5017442;28;20101;-76
2023/03/10 00:11:14;;;;;;;2.60;1.63;;;;;;;11.45;47.55;93133.50;5032652;28;20022;-76
2023/03/10 00:13:40;;;;;;;2.95;2.22;;;;;;;11.59;47.34;93130.50;5028713;28;20653;-75
2023/03/10 00:16:07;;;;;;;4.07;2.72;;;;;;;11.49;48.03;93131.72;5034904;28;20037;-75
2023/03/10 00:18:33;;;;;;;8.63;2.75;;;;;;;11.38;47.96;93140.50;5028660;28;20441;-76
2023/03/10 00:20:59;;;;;;;6.55;3.17;;;;;;;11.01;48.76;93111.22;5032262;28;20580;-76
2023/03/10 00:23:24;;;;;;;4.88;3.10;;;;;;;11.49;48.30;93118.41;5030664;28;20033;-75
2023/03/10 00:25:55;;;;;;;4.40;2.80;;;;;;;11.20;49.43;93134.63;5034756;28;20065;-79
2023/03/10 00:28:20;;;;;;;5.50;3.10;;;;;;;11.18;49.48;93100.38;5014683;28;20163;-78
2023/03/10 00:30:59;;;;;;;6.35;3.20;;;;;;;10.07;52.79;93136.91;5032217;28;20101;-76
2023/03/10 00:33:25;;;;;;;6.60;3.50;;;;;;;10.72;50.86;93112.19;5016561;28;20042;-76
2023/03/10 00:36:03;;;;;;;4.10;2.53;;;;;;;11.09;49.98;93126.31;5029816;28;20058;-76
2023/03/10 00:38:29;;;;;;;5.75;3.28;;;;;;;10.45;51.54;93127.97;5029770;28;20018;-75
2023/03/10 00:40:59;;;;;;;4.88;3.08;;;;;;;10.39;52.00;93129.28;5014556;28;20021;-75
2023/03/10 00:43:24;;;;;;;4.78;3.88;;;;;;;10.84;50.80;93127.41;5030836;28;20068;-77
2023/03/10 00:45:50;;;;;;;6.53;3.30;;;;;;;10.75;50.36;93113.41;5030663;28;20044;-76
2023/03/10 00:48:15;;;;;;;8.35;4.45;;;;;;;9.85;53.12;93121.28;5032301;28;20117;-76
2023/03/10 00:50:40;;;;;;;7.88;3.47;;;;;;;9.99;53.09;93121.78;5028553;28;21640;-77
2023/03/10 00:53:06;;;;;;;4.72;3.10;;;;;;;10.44;51.73;93113.91;5032897;28;20100;-75
2023/03/10 00:55:31;;;;;;;3.92;2.83;;;;;;;10.71;50.92;93112.50;5029533;28;20052;-75
2023/03/10 00:57:56;;;;;;;4.78;3.42;;;;;;;10.99;50.21;93121.44;5030519;28;20414;-75
2023/03/10 01:00:22;;;;;;;6.18;4.47;;;;;;;11.08;49.91;93116.78;5032028;28;20034;-76
2023/03/10 01:02:50;;;;;;;4.55;3.00;;;;;;;11.03;49.94;93103.69;5031443;28;20524;-76
2023/03/10 01:05:16;;;;;;;5.95;2.80;;;;;;;11.12;49.49;93099.03;5033477;28;20457;-76
2023/03/10 01:07:41;;;;;;;7.28;3.15;;;;;;;10.90;49.93;93088.84;5031397;28;20109;-76
2023/03/10 01:10:07;;;;;;;6.60;3.25;;;;;;;11.03;49.59;93101.03;5031120;28;20060;-77
2023/03/10 01:12:32;;;;;;;4.60;3.42;;;;;;;10.79;50.68;93113.53;5024871;28;20045;-75
2023/03/10 01:14:58;;;;;;;5.65;3.25;;;;;;;10.96;49.73;93100.78;5029761;28;20034;-76
2023/03/10 01:17:23;;;;;;;4.43;2.85;;;;;;;11.22;49.23;93124.41;5030182;28;20409;-76
2023/03/10 01:19:49;;;;;;;6.80;2.83;;;;;;;10.70;50.61;93105.66;5016949;28;20036;-76
2023/03/10 01:22:14;;;;;;;3.42;2.70;;;;;;;10.85;50.39;93102.34;5031421;28;20029;-76
2023/03/10 01:24:39;;;;;;;3.80;3.05;;;;;;;10.44;51.80;93113.13;5028688;28;20053;-75
2023/03/10 01:27:05;;;;;;;5.90;3.20;;;;;;;10.77;50.56;93105.09;5030618;28;20069;-75
2023/03/10 01:29:30;;;;;;;3.97;3.25;;;;;;;10.54;51.18;93086.13;5029816;28;20081;-75
2023/03/10 01:31:56;;;;;;;5.20;3.58;;;;;;;10.87;50.48;93102.00;5015389;28;20014;-76
2023/03/10 01:34:21;;;;;;;5.00;3.42;;;;;;;10.81;50.52;93082.06;5032503;28;20101;-77
2023/03/10 01:36:46;;;;;;;4.10;3.38;;;;;;;10.94;50.48;93099.59;5031247;28;20037;-76
2023/03/10 01:39:12;;;;;;;4.93;2.42;;;;;;;10.94;49.93;93079.06;5031852;28;20100;-78
2023/03/10 01:41:38;;;;;;;7.72;3.05;;;;;;;11.00;49.61;93093.69;5030862;28;20029;-76
2023/03/10 01:44:05;;;;;;;7.57;3.00;;;;;;;10.90;50.20;93088.06;5035935;28;20036;-76
2023/03/10 01:46:30;;;;;;;5.15;3.08;;;;;;;11.03;49.67;93100.25;5031967;28;20040;-76
2023/03/10 01:49:01;;;;;;;4.57;3.60;;;;;;;10.99;49.20;93089.50;5029333;28;20065;-79
2023/03/10 01:51:32;;;;;;;4.88;3.33;;;;;;;10.81;49.59;93101.44;5018617;28;20053;-77
2023/03/10 01:53:58;;;;;;;5.18;3.25;;;;;;;10.84;49.47;93105.34;5026944;28;20106;-77
2023/03/10 01:56:23;;;;;;;3.47;2.78;;;;;;;10.85;49.54;93115.66;5030899;28;20030;-77
2023/03/10 01:58:49;;;;;;;3.42;2.60;;;;;;;11.01;48.96;93116.53;5034418;28;20097;-76
2023/03/10 02:01:16;;;;;;;5.65;3.35;;;;;;;11.08;49.78;93131.97;5033259;28;20127;-77
2023/03/10 02:03:57;;;;;;;7.20;3.20;;;;;;;11.01;49.72;93121.84;5033021;28;20050;-77
2023/03/10 02:06:24;;;;;;;14.63;4.38;;;;;;;10.85;49.77;93097.03;5014603;28;20029;-76
2023/03/10 02:08:53;;;;;;;6.57;3.70;;;;;;;10.85;49.44;93097.03;5032092;28;20045;-77
2023/03/10 02:11:19;;;;;;;5.75;3.70;;;;;;;10.96;49.59;93119.41;5035675;28;20024;-77
2023/03/10 02:13:45;;;;;;;7.10;4.40;;;;;;;11.01;49.73;93108.56;5018167;28;20034;-77
2023/03/10 02:16:12;;;;;;;6.15;3.10;;;;;;;10.97;49.92;93102.34;5035601;28;20102;-77
2023/03/10 02:18:40;;;;;;;4.72;3.33;;;;;;;11.07;49.68;93117.09;5033332;28;20033;-76
2023/03/10 02:21:18;;;;;;;5.65;3.55;;;;;;;10.93;50.14;93096.16;5020922;28;20096;-76
2023/03/10 02:24:10;;;;;;;5.57;3.25;;;;;;;11.08;50.34;93124.75;5035472;28;20041;-76
2023/03/10 02:27:01;;;;;;;4.20;2.70;;;;;;;11.10;50.69;93122.53;5035077;28;20033;-77
2023/03/10 02:29:36;;;;;;;6.47;3.92;;;;;;;11.03;50.89;93118.88;5033298;28;20068;-77
2023/03/10 02:32:03;;;;;;;;;;;;;;;11.12;50.36;93116.88;5020071;28;20029;-77
2023/03/10 02:34:28;;;;;;;2.60;1.92;;;;;;;11.01;50.52;93087.25;5036376;28;19908;-76
2023/03/10 02:36:54;;;;;;;4.60;3.25;;;;;;;11.05;50.53;93095.38;5033068;28;20041;-76
2023/03/10 02:39:19;;;;;;;3.60;1.80;;;;;;;11.08;50.71;93111.44;5034771;28;20086;-77
2023/03/10 02:41:45;;;;;;;2.17;1.70;;;;;;;10.94;50.88;93089.72;5031722;28;20528;-76
2023/03/10 02:44:14;;;;;;;3.88;2.28;;;;;;;10.99;50.85;93097.47;5034594;28;20022;-78
2023/03/10 02:46:39;;;;;;;9.60;2.55;;;;;;;11.05;50.59;93106.03;5032545;28;20041;-77
2023/03/10 02:49:09;;;;;;;2.75;2.00;;;;;;;11.00;50.74;93098.25;5033249;28;20097;-77
2023/03/10 02:51:38;;;;;;;5.75;2.88;;;;;;;11.25;50.43;93121.09;5031782;28;20056;-76
2023/03/10 02:54:04;;;;;;;3.60;2.35;;;;;;;10.88;50.51;93069.75;5032384;28;20104;-77
2023/03/10 02:56:33;;;;;;;3.03;1.83;;;;;;;11.05;50.56;93095.38;5019066;28;20026;-77
2023/03/10 02:58:59;;;;;;;2.25;1.50;;;;;;;11.08;50.31;93090.16;5028119;28;20025;-76
2023/03/10 03:01:25;;;;;;;5.32;1.85;;;;;;;11.15;50.71;93095.69;5034808;28;20026;-77
2023/03/10 03:03:51;;;;;;;3.30;2.22;;;;;;;11.11;50.67;93094.03;5031677;28;20053;-77
2023/03/10 03:06:16;;;;;;;2.30;1.92;;;;;;;11.29;50.64;93110.56;5020228;28;20048;-76
2023/03/10 03:08:41;;;;;;;4.43;2.60;;;;;;;11.25;50.43;93110.44;5014438;28;20037;-76
2023/03/10 03:11:07;;;;;;;3.15;2.58;;;;;;;11.10;50.81;93093.25;5035919;28;20021;-76
2023/03/10 03:13:33;;;;;;;3.67;2.28;;;;;;;11.21;50.63;93100.78;5027486;28;20038;-77
2023/03/10 03:15:58;;;;;;;5.25;3.67;;;;;;;11.32;50.78;93115.22;5011080;28;20042;-76
2023/03/10 03:18:24;;;;;;;3.30;2.25;;;;;;;11.12;50.78;93079.63;5028551;28;20033;-76
2023/03/10 03:20:49;;;;;;;3.65;2.50;;;;;;;11.27;50.48;93086.16;5030860;28;20045;-76
2023/03/10 03:23:15;;;;;;;4.43;3.45;;;;;;;11.14;50.29;93062.22;5028544;28;20087;-76
2023/03/10 03:25:41;;;;;;;3.70;3.10;;;;;;;11.31;50.21;93097.69;5030466;28;20053;-76
2023/03/10 03:28:09;;;;;;;2.05;1.50;;;;;;;11.29;50.19;93106.03;5027968;28;20049;-75
2023/03/10 03:30:35;;;;;;;2.53;1.80;;;;;;;11.00;50.50;93083.06;5030316;28;20038;-75
2023/03/10 03:33:02;;;;;;;4.25;1.88;;;;;;;11.05;50.92;93093.47;5031571;28;20030;-77
2023/03/10 03:35:33;;;;;;;3.58;1.83;;;;;;;11.11;50.62;93094.81;5032396;28;20029;-77
2023/03/10 03:37:59;;;;;;;4.30;2.08;;;;;;;11.06;51.01;93092.38;5035574;28;20061;-75
2023/03/10 03:40:27;;;;;;;4.47;2.03;;;;;;;11.12;51.17;93096.38;5028619;28;20104;-77
2023/03/10 03:42:53;;;;;;;5.05;3.10;;;;;;;11.00;51.23;93079.63;5035463;28;20022;-76
2023/03/10 03:45:21;;;;;;;4.43;2.42;;;;;;;11.14;50.73;93099.47;5019807;28;20034;-77
2023/03/10 03:47:47;;;;;;;5.85;2.30;;;;;;;11.00;51.23;93087.63;5033718;28;20033;-77
2023/03/10 03:50:15;;;;;;;3.58;2.63;;;;;;;11.16;50.85;93107.13;5033502;28;20771;-76
2023/03/10 03:52:41;;;;;;;4.30;2.00;;;;;;;11.15;50.95;93103.66;5023318;28;20037;-76
2023/03/10 03:55:08;;;;;;;2.30;1.90;;;;;;;11.13;50.60;93091.81;5036221;28;20037;-77
2023/03/10 03:57:34;;;;;;;3.80;2.70;;;;;;;11.22;50.67;93099.69;5034723;28;20048;-78
2023/03/10 04:00:00;;;;;;;3.55;2.25;;;;;;;11.34;50.59;93107.69;5031833;28;20052;-76
2023/03/10 04:02:25;;;;;;;3.67;2.53;;;;;;;11.34;50.53;93113.00;5039076;28;20049;-76
2023/03/10 04:04:53;;;;;;;7.53;2.50;;;;;;;11.35;50.83;93111.88;5035293;28;20072;-79
2023/03/10 04:07:18;;;;;;;3.17;2.50;;;;;;;11.23;51.07;93102.03;5037017;28;20038;-77
2023/03/10 04:09:44;;;;;;;6.78;2.33;;;;;;;11.17;51.02;93088.16;5036521;28;20045;-78
2023/03/10 04:12:10;;;;;;;5.05;2.38;;;;;;;11.21;50.89;93108.78;5034434;28;20036;-75
2023/03/10 04:14:36;;;;;;;5.93;2.55;;;;;;;11.28;50.97;93114.34;5031508;28;20062;-75
2023/03/10 04:17:03;;;;;;;4.75;2.83;;;;;;;10.96;51.21;93066.19;5036915;28;20466;-78
2023/03/10 04:19:28;;;;;;;6.03;3.45;;;;;;;11.25;51.01;93093.72;5035048;28;20064;-77
2023/03/10 04:21:53;;;;;;;3.70;2.63;;;;;;;11.20;51.13;93070.72;5036756;28;20691;-77
2023/03/10 04:24:19;;;;;;;4.03;2.67;;;;;;;11.27;50.83;93083.50;5016978;28;20038;-77
2023/03/10 04:26:45;;;;;;;2.58;2.03;;;;;;;11.18;50.99;93068.44;5033018;28;20037;-77
2023/03/10 04:29:11;;;;;;;7.18;3.45;;;;;;;11.34;50.79;93107.69;5038588;28;20589;-78
2023/03/10 04:31:36;;;;;;;6.25;3.38;;;;;;;11.35;50.73;93098.56;5029011;28;20060;-78
2023/03/10 04:34:04;;;;;;;5.95;2.92;;;;;;;11.25;50.70;93081.16;5036597;28;20025;-76
2023/03/10 04:36:30;;;;;;;6.53;2.53;;;;;;;11.31;51.06;93089.69;5035811;28;20052;-78
2023/03/10 04:38:56;;;;;;;3.63;2.42;;;;;;;11.35;50.94;93088.69;5037819;28;20034;-77
2023/03/10 04:41:22;;;;;;;4.32;2.50;;;;;;;11.53;50.73;93084.72;5035610;28;20061;-77
2023/03/10 04:43:47;;;;;;;5.65;3.33;;;;;;;11.25;50.97;93062.53;5037562;28;20049;-78
2023/03/10 04:46:13;;;;;;;4.18;2.85;;;;;;;11.35;51.20;93093.22;5034542;28;20086;-77
2023/03/10 04:48:39;;;;;;;4.72;3.03;;;;;;;11.28;50.79;93066.41;5036384;28;20034;-78
2023/03/10 04:51:07;;;;;;;5.30;3.20;;;;;;;11.27;51.07;93064.84;5035428;28;20102;-78
2023/03/10 04:53:34;;;;;;;3.03;2.08;;;;;;;11.22;51.12;93052.56;5037009;28;20025;-77
2023/03/10 04:56:01;;;;;;;3.22;2.03;;;;;;;11.33;51.48;93074.19;5038940;28;20546;-77
2023/03/10 04:58:27;;;;;;;6.35;2.25;;;;;;;11.38;51.05;93076.63;5016566;28;20316;-78
2023/03/10 05:00:53;;;;;;;3.45;2.10;;;;;;;11.30;51.02;93053.53;5036261;28;20041;-78
2023/03/10 05:03:18;;;;;;;4.55;2.22;;;;;;;11.43;50.83;93063.06;5035680;28;20041;-78
2023/03/10 05:05:44;;;;;;;3.45;2.53;;;;;;;11.28;50.84;93039.81;5014697;28;20045;-78
2023/03/10 05:08:09;;;;;;;3.10;2.05;;;;;;;11.24;51.00;93031.72;5036329;28;20033;-79
2023/03/10 05:10:38;;;;;;;3.38;2.08;;;;;;;11.41;51.14;93051.97;5031713;28;20117;-78
2023/03/10 05:13:04;;;;;;;4.55;2.20;;;;;;;11.33;50.92;93031.59;5033785;28;20065;-77
2023/03/10 05:15:33;;;;;;;3.55;2.15;;;;;;;11.45;50.91;93044.84;5015533;28;20062;-76
2023/03/10 05:17:58;;;;;;;3.80;2.25;;;;;;;11.26;51.01;93023.38;5029980;28;20044;-77
2023/03/10 05:20:24;;;;;;;3.38;2.42;;;;;;;11.37;51.04;93040.44;5031931;28;20017;-76
2023/03/10 05:22:49;;;;;;;3.90;2.55;;;;;;;11.39;51.05;93043.56;5028671;28;20089;-76
2023/03/10 05:25:15;;;;;;;3.75;2.70;;;;;;;11.27;51.17;93019.63;5031374;28;20084;-76
2023/03/10 05:27:40;;;;;;;7.40;4.18;;;;;;;11.34;51.40;93030.47;5016038;28;20682;-75
2023/03/10 05:30:08;;;;;;;6.35;3.97;;;;;;;11.41;51.05;93042.09;5029714;28;20037;-77
2023/03/10 05:32:34;;;;;;;6.82;4.10;;;;;;;11.38;51.31;93034.78;5032005;28;20030;-77
2023/03/10 05:35:01;;;;;;;5.70;3.25;;;;;;;11.42;51.49;93035.66;5031506;28;20467;-76
2023/03/10 05:37:26;;;;;;;4.43;2.63;;;;;;;11.25;51.49;93003.22;5032846;28;20065;-76
2023/03/10 05:39:51;;;;;;;5.88;2.70;;;;;;;11.38;51.39;93023.38;5018211;28;20074;-77
2023/03/10 05:42:17;;;;;;;4.72;2.65;;;;;;;11.51;51.29;93027.56;5031622;28;20041;-76
2023/03/10 05:44:43;;;;;;;4.28;2.22;;;;;;;11.46;51.59;93025.13;5031380;28;20032;-77
2023/03/10 05:47:08;;;;;;;4.15;2.50;;;;;;;11.60;51.49;93030.88;5033367;28;20026;-76
2023/03/10 05:49:34;;;;;;;4.45;3.28;;;;;;;11.57;51.51;93027.00;5028699;28;20049;-77
2023/03/10 05:51:59;;;;;;;6.00;3.63;;;;;;;11.66;51.44;93026.09;5030174;28;20030;-77
2023/03/10 05:54:25;;;;;;;5.28;3.10;;;;;;;11.46;51.51;92993.16;5028030;28;20037;-76
2023/03/10 05:56:50;;;;;;;6.85;4.15;;;;;;;11.76;51.57;93023.72;5032758;28;20093;-75
2023/03/10 05:59:16;;;;;;;5.63;3.25;;;;;;;11.76;51.70;93023.72;5030955;28;20030;-77
2023/03/10 06:01:41;;;;;;;4.18;2.70;;;;;;;11.78;51.90;93018.84;5035760;28;20065;-76
2023/03/10 06:04:07;;;;;;;5.68;2.63;;;;;;;11.74;52.35;93020.59;5032367;28;20033;-77
2023/03/10 06:06:33;;;;;;;5.63;3.03;;;;;;;11.52;52.20;93013.16;5015197;28;20037;-76
2023/03/10 06:08:59;;;;;;;11.57;6.10;;;;;;;11.29;53.23;93023.50;5021750;28;20028;-76
2023/03/10 06:11:24;;;;;;;16.15;8.15;;;;;;;10.99;53.67;93027.53;5033934;28;20015;-76
2023/03/10 06:13:50;;;;;;;19.50;8.50;;;;;;;11.12;53.29;93031.72;5015253;28;20085;-77
2023/03/10 06:16:15;;;;;;;23.10;9.40;;;;;;;11.36;52.98;93026.34;5032701;28;20113;-78
2023/03/10 06:18:41;;;;;;;17.75;8.15;;;;;;;11.30;52.69;93000.28;5033649;28;20072;-76
2023/03/10 06:21:08;;;;;;;19.13;9.90;;;;;;;11.09;53.68;93043.03;5032118;28;20405;-77
2023/03/10 06:23:35;;;;;;;31.77;10.20;;;;;;;10.67;55.15;93026.53;5015269;28;20029;-77
2023/03/10 06:26:06;;;;;;;25.20;9.40;;;;;;;11.04;53.85;93022.75;5032149;28;20081;-76
2023/03/10 06:28:34;;;;;;;24.98;8.25;;;;;;;11.32;53.48;93035.34;5035037;28;20029;-76
2023/03/10 06:31:02;;;;;;;18.48;9.75;;;;;;;11.46;52.87;93046.41;5016902;28;20057;-77
2023/03/10 06:33:28;;;;;;;14.90;8.07;;;;;;;11.37;52.91;93024.47;5032837;28;20041;-77
2023/03/10 06:35:54;;;;;;;17.88;8.48;;;;;;;11.53;52.42;93036.00;5032344;28;20034;-76
2023/03/10 06:38:20;;;;;;;22.70;8.52;;;;;;;11.42;52.57;93030.34;5031881;28;20085;-77
2023/03/10 06:40:46;;;;;;;17.70;8.85;;;;;;;10.82;54.42;93039.16;5034231;28;20104;-77
2023/03/10 06:43:11;;;;;;;23.67;9.35;;;;;;;10.58;54.61;93007.25;5032901;28;20072;-75
2023/03/10 06:45:40;;;;;;;19.77;8.27;;;;;;;10.69;54.84;93043.72;5036519;28;20070;-77
2023/03/10 06:48:05;;;;;;;15.90;9.10;;;;;;;11.18;53.57;93047.13;5036213;28;20529;-76
2023/03/10 06:50:31;;;;;;;14.75;6.95;;;;;;;11.07;53.68;93037.28;5028646;28;20707;-77
2023/03/10 06:52:56;;;;;;;15.10;6.68;;;;;;;11.04;53.78;93046.72;5024444;28;20010;-77
2023/03/10 06:55:21;;;;;;;14.75;7.70;;;;;;;10.55;54.50;93019.34;5031791;28;20105;-77
2023/03/10 06:57:47;;;;;;;13.48;6.57;;;;;;;11.12;53.71;93051.13;5030533;28;20033;-76
2023/03/10 07:00:14;;;;;;;17.33;8.27;;;;;;;11.15;53.05;93037.13;5034133;28;20042;-76
2023/03/10 07:02:41;;;;;;;12.70;6.65;;;;;;;11.11;53.30;93041.59;5030416;28;20022;-77
2023/03/10 07:05:09;;;;;;;22.98;7.57;;;;;;;10.76;54.25;93031.75;5029785;28;20164;-77
2023/03/10 07:07:35;;;;;;;14.55;7.30;;;;;;;11.05;53.51;93048.25;5030943;28;20073;-77
2023/03/10 07:10:00;;;;;;;11.57;6.70;;;;;;;11.12;53.28;93042.38;5030581;28;20034;-77
2023/03/10 07:12:25;;;;;;;14.38;8.20;;;;;;;10.67;54.00;92994.63;5028043;28;20045;-77
2023/03/10 07:14:51;;;;;;;19.83;9.65;;;;;;;10.76;54.38;93005.91;5028182;28;20064;-76
2023/03/10 07:17:16;;;;;;;19.33;10.32;;;;;;;11.30;54.84;93021.59;5029441;28;20029;-76
2023/03/10 07:19:43;;;;;;;17.10;7.40;;;;;;;11.58;53.14;93023.25;5028646;28;20045;-77
2023/03/10 07:22:08;;;;;;;17.65;8.32;;;;;;;11.67;52.95;93019.66;5035885;28;20022;-76
2023/03/10 07:24:34;;;;;;;18.58;8.77;;;;;;;11.62;53.04;93023.34;5034712;28;20060;-78
2023/03/10 07:27:00;;;;;;;19.67;9.60;;;;;;;11.05;54.47;93008.31;5029632;28;20030;-77
2023/03/10 07:29:26;;;;;;;30.55;9.55;;;;;;;10.32;56.96;93010.16;5038227;28;20089;-76
2023/03/10 07:31:51;;;;;;;38.50;10.40;;;;;;;10.73;55.78;93015.34;5031833;28;20028;-77
2023/03/10 07:34:17;;;;;;;17.48;8.20;;;;;;;10.95;54.86;93016.00;5018651;28;20038;-77
2023/03/10 07:36:42;;;;;;;30.17;11.57;;;;;;;10.89;55.61;93031.41;5034818;28;20034;-77
2023/03/10 07:39:08;;;;;;;17.90;7.88;;;;;;;10.83;55.29;93006.13;5036734;28;20057;-79
2023/03/10 07:41:33;;;;;;;20.05;8.55;;;;;;;10.52;56.67;93024.50;5035864;28;20064;-77
2023/03/10 07:43:59;;;;;;;25.55;10.70;;;;;;;10.34;57.67;92997.34;5035729;28;20225;-76
2023/03/10 07:46:25;;;;;;;16.40;8.50;;;;;;;10.81;56.77;93005.69;5036896;28;20047;-77
2023/03/10 07:48:51;;;;;;;20.75;9.05;;;;;;;10.40;56.78;92974.00;5038597;28;20046;-77
2023/03/10 07:51:17;;;;;;;19.52;8.73;;;;;;;10.28;57.45;92964.88;5035985;28;20045;-77
2023/03/10 07:53:43;;;;;;;17.85;8.38;;;;;;;10.62;56.98;92998.28;5018693;28;20053;-77
2023/03/10 07:56:11;;;;;;;19.65;9.32;;;;;;;10.24;58.15;92990.56;5038295;28;20021;-77
2023/03/10 07:58:37;;;;;;;19.58;9.65;;;;;;;10.08;58.79;92979.03;5035748;28;20022;-77
2023/03/10 08:01:03;;;;;;;17.70;8.75;;;;;;;10.07;59.25;92988.13;5032909;28;20106;-78
2023/03/10 08:03:29;;;;;;;18.63;7.95;;;;;;;10.17;57.76;92968.31;5037555;28;20061;-77
2023/03/10 08:05:54;;;;;;;36.83;10.15;;;;;;;10.23;58.41;92986.38;5037033;28;20018;-78
2023/03/10 08:08:21;;;;;;;16.00;7.68;;;;;;;10.61;57.39;92982.66;5036349;28;20028;-77
2023/03/10 08:10:47;;;;;;;12.82;7.15;;;;;;;10.29;57.83;92944.41;5034270;28;20468;-77
2023/03/10 08:13:13;;;;;;;12.43;8.10;;;;;;;10.36;58.16;92965.13;5038004;28;20057;-77
2023/03/10 08:15:38;;;;;;;22.17;7.78;;;;;;;10.30;57.81;92946.75;5038327;28;20034;-77
2023/03/10 08:18:06;;;;;;;19.60;7.60;;;;;;;9.98;58.91;92939.59;5032952;28;20314;-76
2023/03/10 08:20:33;;;;;;;17.17;6.78;;;;;;;10.38;58.27;92946.97;5036685;28;20026;-76
2023/03/10 08:22:58;;;;;;;14.98;6.68;;;;;;;10.27;57.50;92936.75;5036685;28;20056;-77
2023/03/10 08:25:23;;;;;;;21.73;7.13;;;;;;;10.11;58.15;92940.41;5036764;28;20026;-78
2023/03/10 08:27:49;;;;;;;11.18;6.50;;;;;;;10.60;57.17;92947.31;5013998;28;20041;-77
2023/03/10 08:30:15;;;;;;;15.98;6.80;;;;;;;10.24;57.77;92900.22;5034714;28;21420;-77
2023/03/10 08:32:40;;;;;;;14.00;6.72;;;;;;;10.21;58.71;92932.78;5033748;28;20026;-76
2023/03/10 08:35:07;;;;;;;15.55;6.90;;;;;;;10.47;58.08;92923.72;5031541;28;20517;-77
2023/03/10 08:37:32;;;;;;;11.00;5.47;;;;;;;10.63;57.20;92898.00;5034924;28;20030;-76
2023/03/10 08:39:59;;;;;;;9.50;5.53;;;;;;;11.16;55.52;92913.63;5032568;28;20041;-77
2023/03/10 08:42:24;;;;;;;13.48;5.00;;;;;;;11.22;55.56;92913.38;5034563;28;20041;-76
2023/03/10 08:44:50;;;;;;;14.02;4.95;;;;;;;10.91;55.76;92890.84;5035160;28;20037;-75
2023/03/10 08:47:15;;;;;;;11.95;5.82;;;;;;;10.98;55.76;92888.41;5017506;28;20045;-77
2023/03/10 08:49:41;;;;;;;9.30;5.03;;;;;;;10.91;55.64;92906.81;5040457;28;20052;-77
2023/03/10 08:52:08;;;;;;;10.20;5.22;;;;;;;11.51;55.74;92908.53;5034474;28;20034;-77
2023/03/10 08:54:33;;;;;;;13.05;3.65;;;;;;;10.89;55.70;92890.44;5035613;28;20046;-77
2023/03/10 08:56:59;;;;;;;11.98;4.00;;;;;;;10.73;56.17;92873.63;5037190;28;20395;-77
2023/03/10 08:59:25;;;;;;;6.03;3.67;;;;;;;11.39;54.32;92878.50;5035646;28;20520;-76
2023/03/10 09:01:50;;;;;;;6.95;4.18;;;;;;;11.53;53.37;92845.06;5035238;28;20040;-77
2023/03/10 09:04:16;;;;;;;5.28;4.00;;;;;;;12.01;52.14;92881.28;5036040;28;20644;-77
2023/03/10 09:06:41;;;;;;;19.05;5.00;;;;;;;11.55;53.17;92866.78;5035172;28;20057;-76
2023/03/10 09:09:09;;;;;;;16.73;4.07;;;;;;;12.08;53.59;92885.97;5037347;28;20038;-77
2023/03/10 09:11:37;;;;;;;14.05;4.80;;;;;;;12.27;51.39;92869.31;5014119;28;20022;-76
2023/03/10 09:14:03;;;;;;;14.77;4.35;;;;;;;12.13;52.03;92875.06;5032817;28;20048;-76
2023/03/10 09:16:29;;;;;;;7.78;4.45;;;;;;;12.16;51.87;92858.41;5030775;28;20037;-77
2023/03/10 09:18:58;;;;;;;14.98;4.93;;;;;;;11.82;52.34;92862.53;5014585;28;20582;-75
2023/03/10 09:21:24;;;;;;;9.18;4.65;;;;;;;12.50;52.04;92872.91;5029384;28;20038;-76
2023/03/10 09:23:51;;;;;;;12.48;4.85;;;;;;;12.41;51.13;92850.97;5029843;28;20042;-77
2023/03/10 09:26:18;;;;;;;8.23;4.70;;;;;;;11.70;52.76;92853.84;5033186;28;20018;-76
2023/03/10 09:28:43;;;;;;;13.50;5.57;;;;;;;11.61;53.57;92867.31;5030491;28;20041;-77
2023/03/10 09:31:15;;;;;;;11.02;4.88;;;;;;;12.02;52.71;92860.72;5033552;28;20029;-76
2023/03/10 09:33:40;;;;;;;8.65;5.28;;;;;;;12.23;52.00;92847.13;5032229;28;20033;-75
2023/03/10 09:36:06;;;;;;;8.88;4.88;;;;;;;12.47;52.85;92860.22;5032877;28;20065;-76
2023/03/10 09:38:31;;;;;;;17.80;5.68;;;;;;;12.86;50.37;92845.88;5028704;28;20024;-75
2023/03/10 09:41:35;;;;;;;11.23;4.97;;;;;;;13.01;49.66;92854.94;5031116;28;20030;-75
2023/03/10 09:44:33;;;;;;;29.50;7.20;;;;;;;12.50;50.87;92843.56;4997079;28;20034;-76
2023/03/10 09:47:52;;;;;;;21.45;7.13;;;;;;;12.15;52.05;92840.09;5012025;28;20145;-77
2023/03/10 09:50:43;;;;;;;17.58;6.72;;;;;;;11.88;52.92;92844.41;4956724;28;20155;-76
2023/03/10 09:53:27;;;;;;;18.27;7.05;;;;;;;11.82;52.85;92843.09;5026064;28;20049;-76
2023/03/10 09:55:52;;;;;;;9.50;5.20;;;;;;;11.34;54.44;92838.81;5031953;28;20041;-75
2023/03/10 09:58:41;;;;;;;14.73;5.25;;;;;;;11.96;53.50;92844.22;5032091;28;20148;-76
2023/03/10 10:01:15;;;;;;;11.13;6.13;;;;;;;11.79;52.98;92828.56;5032706;28;20592;-76
2023/03/10 10:03:46;;;;;;;14.93;5.97;;;;;;;11.93;52.10;92785.53;5032831;28;20081;-76
2023/03/10 10:06:20;;;;;;;11.77;5.93;;;;;;;12.14;52.52;92827.88;5030708;28;20070;-76
2023/03/10 10:09:20;;;;;;;17.20;6.50;;;;;;;11.14;55.07;92784.69;5028954;28;20037;-77
2023/03/10 10:11:46;;;;;;;14.45;7.10;;;;;;;11.32;55.04;92785.91;5017029;28;20251;-75
2023/03/10 10:14:15;;;;;;;20.73;6.80;;;;;;;12.09;53.91;92812.16;5031599;28;20108;-76
2023/03/10 10:17:18;;;;;;;11.95;6.40;;;;;;;12.73;51.91;92823.13;5031657;28;20042;-76
2023/03/10 10:19:46;;;;;;;9.48;5.30;;;;;;;12.65;50.50;92808.09;5028531;28;20612;-76
2023/03/10 10:22:29;;;;;;;11.38;4.82;;;;;;;12.30;51.77;92810.75;5033062;28;20061;-76
2023/03/10 10:25:07;;;;;;;11.07;5.55;;;;;;;12.37;51.37;92812.81;5033364;28;20053;-75
2023/03/10 10:27:32;;;;;;;16.85;4.90;;;;;;;12.46;51.06;92805.38;5035539;28;20029;-75
2023/03/10 10:29:58;;;;;;;9.77;5.15;;;;;;;12.70;50.93;92805.16;5027420;28;20081;-75
2023/03/10 10:32:23;;;;;;;10.10;4.53;;;;;;;12.99;50.58;92785.16;5032500;28;20029;-77
2023/03/10 10:34:48;;;;;;;11.55;6.50;;;;;;;12.75;50.08;92791.53;5015059;28;20034;-76
2023/03/10 10:37:26;;;;;;;15.75;5.63;;;;;;;12.60;50.55;92800.38;5033054;28;20037;-77
2023/03/10 10:39:53;;;;;;;17.65;6.32;;;;;;;12.61;50.71;92775.25;5029270;28;20062;-76
2023/03/10 10:42:23;;;;;;;16.92;6.28;;;;;;;12.27;51.63;92794.69;5032919;28;20037;-76
2023/03/10 10:44:57;;;;;;;11.65;6.25;;;;;;;12.32;52.20;92784.50;5029626;28;20953;-77
2023/03/10 10:47:46;;;;;;;15.90;6.30;;;;;;;12.46;51.85;92784.03;5031610;28;20044;-75
2023/03/10 10:50:39;;;;;;;12.32;5.75;;;;;;;13.14;51.10;92794.97;5031078;28;20058;-76
2023/03/10 10:53:18;;;;;;;11.95;5.97;;;;;;;13.45;50.42;92788.66;5031190;28;20073;-75
2023/03/10 10:55:46;;;;;;;16.02;6.32;;;;;;;13.47;50.97;92783.72;5034253;28;20026;-77
2023/03/10 10:58:36;;;;;;;17.83;6.25;;;;;;;13.25;51.64;92781.81;5036284;28;20030;-77
2023/03/10 11:01:07;;;;;;;13.45;6.93;;;;;;;12.72;52.76;92786.13;5035301;28;20085;-76
2023/03/10 11:03:35;;;;;;;10.45;6.63;;;;;;;12.91;54.93;92756.03;5035389;28;20042;-76
2023/03/10 11:06:22;;;;;;;11.32;6.63;;;;;;;13.19;56.83;92764.53;5022206;28;20053;-77
2023/03/10 11:08:51;;;;;;;13.15;6.78;;;;;;;13.52;57.54;92759.41;5033661;28;20041;-76
2023/03/10 11:11:38;;;;;;;11.65;6.80;;;;;;;13.49;56.97;92760.13;5037312;28;20049;-76
2023/03/10 11:14:16;;;;;;;13.45;6.82;;;;;;;13.02;59.13;92746.28;5036028;28;20068;-76
2023/03/10 11:17:19;;;;;;;16.90;5.75;;;;;;;12.10;56.56;92729.19;5022933;28;20029;-76
2023/03/10 11:19:56;;;;;;;13.15;4.05;;;;;;;12.06;59.73;92722.25;5035616;28;20048;-78
2023/03/10 11:22:59;;;;;;;16.10;5.22;;;;;;;11.91;60.56;92715.81;5028349;28;20041;-76
2023/03/10 11:25:30;;;;;;;6.60;3.85;;;;;;;11.28;62.45;92677.81;5037509;28;20057;-77
2023/03/10 11:28:05;;;;;;;9.93;4.22;;;;;;;11.41;62.94;92697.91;5039482;28;20033;-77
2023/03/10 11:30:33;;;;;;;16.73;5.35;;;;;;;11.96;63.15;92687.03;5037449;28;20025;-77
2023/03/10 11:33:10;;;;;;;8.23;2.50;;;;;;;11.70;60.92;92692.16;5039851;28;20030;-77
2023/03/10 11:35:45;;;;;;;9.77;2.80;;;;;;;11.68;61.10;92673.09;5028303;28;20021;-76